sensor_id;sensor_type;location;lat;lon;timestamp;temperature;humidity
9537;DHT22;4807;48.024;11.726;2022-12-16T00:00:19;0.60;99.90
9537;DHT22;4807;48.024;11.726;2022-12-16T00:03:28;0.50;99.90
9537;DHT22;4807;48.024;11.726;2022-12-16T00:06:36;0.60;99.90
9537;DHT22;4807;48.024;11.726;2022-12-16T00:09:46;0.60;99.90
9537;DHT22;4807;48.024;11.726;2022-12-16T00:12:54;0.50;99.90
9537;DHT22;4807;48.024;11.726;2022-12-16T00:16:04;0.50;99.90
9537;DHT22;4807;48.024;11.726;2022-12-16T00:19:14;0.50;99.90
9537;DHT22;4807;48.024;11.726;2022-12-16T00:22:22;0.50;99.90
9537;DHT22;4807;48.024;11.726;2022-12-16T00:25:32;0.60;99.90
9537;DHT22;4807;48.024;11.726;2022-12-16T00:28:40;0.60;99.90
9537;DHT22;4807;48.024;11.726;2022-12-16T00:31:50;0.60;99.90
9537;DHT22;4807;48.024;11.726;2022-12-16T00:34:59;0.60;99.90
9537;DHT22;4807;48.024;11.726;2022-12-16T00:38:08;0.60;99.90
9537;DHT22;4807;48.024;11.726;2022-12-16T00:41:17;0.60;99.90
9537;DHT22;4807;48.024;11.726;2022-12-16T00:44:26;0.70;99.90
9537;DHT22;4807;48.024;11.726;2022-12-16T00:47:34;0.70;99.90
9537;DHT22;4807;48.024;11.726;2022-12-16T00:50:50;0.70;99.90
9537;DHT22;4807;48.024;11.726;2022-12-16T00:54:01;0.70;99.90
9537;DHT22;4807;48.024;11.726;2022-12-16T00:57:11;0.70;99.90
9537;DHT22;4807;48.024;11.726;2022-12-16T01:00:19;0.80;99.90
9537;DHT22;4807;48.024;11.726;2022-12-16T01:03:28;0.80;99.90
9537;DHT22;4807;48.024;11.726;2022-12-16T01:06:36;0.80;99.90
9537;DHT22;4807;48.024;11.726;2022-12-16T01:09:44;0.80;99.90
9537;DHT22;4807;48.024;11.726;2022-12-16T01:12:54;0.80;99.90
9537;DHT22;4807;48.024;11.726;2022-12-16T01:16:02;0.80;99.90
9537;DHT22;4807;48.024;11.726;2022-12-16T01:19:11;0.80;99.90
9537;DHT22;4807;48.024;11.726;2022-12-16T01:22:20;0.90;99.90
9537;DHT22;4807;48.024;11.726;2022-12-16T01:25:29;0.90;99.90
9537;DHT22;4807;48.024;11.726;2022-12-16T01:28:39;0.80;99.90
9537;DHT22;4807;48.024;11.726;2022-12-16T01:31:47;0.80;99.90
9537;DHT22;4807;48.024;11.726;2022-12-16T01:34:56;0.80;99.90
9537;DHT22;4807;48.024;11.726;2022-12-16T01:38:06;0.90;99.90
9537;DHT22;4807;48.024;11.726;2022-12-16T01:41:16;0.90;99.90
9537;DHT22;4807;48.024;11.726;2022-12-16T01:44:26;0.80;99.90
9537;DHT22;4807;48.024;11.726;2022-12-16T01:47:34;0.70;99.90
9537;DHT22;4807;48.024;11.726;2022-12-16T01:50:43;0.60;99.90
9537;DHT22;4807;48.024;11.726;2022-12-16T01:53:56;0.40;99.90
9537;DHT22;4807;48.024;11.726;2022-12-16T01:57:10;0.40;99.90
9537;DHT22;4807;48.024;11.726;2022-12-16T02:00:23;0.40;99.90
9537;DHT22;4807;48.024;11.726;2022-12-16T02:03:34;0.40;99.90
9537;DHT22;4807;48.024;11.726;2022-12-16T02:06:44;0.50;99.90
9537;DHT22;4807;48.024;11.726;2022-12-16T02:09:52;0.50;99.90
9537;DHT22;4807;48.024;11.726;2022-12-16T02:13:08;0.60;99.90
9537;DHT22;4807;48.024;11.726;2022-12-16T02:16:30;0.60;99.90
9537;DHT22;4807;48.024;11.726;2022-12-16T02:24:06;0.70;99.90
9537;DHT22;4807;48.024;11.726;2022-12-16T02:27:52;0.70;99.90
9537;DHT22;4807;48.024;11.726;2022-12-16T02:31:18;0.70;99.90
9537;DHT22;4807;48.024;11.726;2022-12-16T02:34:39;0.50;99.90
9537;DHT22;4807;48.024;11.726;2022-12-16T02:38:11;0.50;99.90
9537;DHT22;4807;48.024;11.726;2022-12-16T02:41:36;0.50;99.90
9537;DHT22;4807;48.024;11.726;2022-12-16T02:44:54;0.40;99.90
9537;DHT22;4807;48.024;11.726;2022-12-16T02:52:56;0.50;99.90
9537;DHT22;4807;48.024;11.726;2022-12-16T02:56:16;0.50;99.90
9537;DHT22;4807;48.024;11.726;2022-12-16T02:59:38;0.60;99.90
9537;DHT22;4807;48.024;11.726;2022-12-16T03:02:55;0.60;99.90
9537;DHT22;4807;48.024;11.726;2022-12-16T03:06:09;0.60;99.90
9537;DHT22;4807;48.024;11.726;2022-12-16T03:09:24;0.60;99.90
9537;DHT22;4807;48.024;11.726;2022-12-16T03:12:37;0.70;99.90
9537;DHT22;4807;48.024;11.726;2022-12-16T03:15:52;0.60;99.90
9537;DHT22;4807;48.024;11.726;2022-12-16T03:19:07;0.70;99.90
9537;DHT22;4807;48.024;11.726;2022-12-16T03:22:20;0.70;99.90
9537;DHT22;4807;48.024;11.726;2022-12-16T03:25:39;0.60;99.90
9537;DHT22;4807;48.024;11.726;2022-12-16T03:28:54;0.60;99.90
9537;DHT22;4807;48.024;11.726;2022-12-16T03:32:12;0.70;99.90
9537;DHT22;4807;48.024;11.726;2022-12-16T03:35:27;0.70;99.90
9537;DHT22;4807;48.024;11.726;2022-12-16T03:38:40;0.70;99.90
9537;DHT22;4807;48.024;11.726;2022-12-16T03:41:54;0.70;99.90
9537;DHT22;4807;48.024;11.726;2022-12-16T03:45:04;0.70;99.90
9537;DHT22;4807;48.024;11.726;2022-12-16T03:48:15;0.70;99.90
9537;DHT22;4807;48.024;11.726;2022-12-16T03:51:26;0.70;99.90
9537;DHT22;4807;48.024;11.726;2022-12-16T03:54:34;0.70;99.90
9537;DHT22;4807;48.024;11.726;2022-12-16T03:57:44;0.70;99.90
9537;DHT22;4807;48.024;11.726;2022-12-16T04:00:53;0.70;99.90
9537;DHT22;4807;48.024;11.726;2022-12-16T04:04:04;0.60;99.90
9537;DHT22;4807;48.024;11.726;2022-12-16T04:07:12;0.50;99.90
9537;DHT22;4807;48.024;11.726;2022-12-16T04:10:30;0.40;99.90
9537;DHT22;4807;48.024;11.726;2022-12-16T04:13:58;0.30;99.90
9537;DHT22;4807;48.024;11.726;2022-12-16T04:17:24;0.20;99.90
9537;DHT22;4807;48.024;11.726;2022-12-16T04:20:51;0.10;99.90
9537;DHT22;4807;48.024;11.726;2022-12-16T04:24:21;0.20;99.90
9537;DHT22;4807;48.024;11.726;2022-12-16T04:27:36;0.20;99.90
9537;DHT22;4807;48.024;11.726;2022-12-16T04:30:46;0.20;99.90
9537;DHT22;4807;48.024;11.726;2022-12-16T04:33:54;0.10;99.90
9537;DHT22;4807;48.024;11.726;2022-12-16T04:37:31;0.00;99.90
9537;DHT22;4807;48.024;11.726;2022-12-16T04:41:09;0.00;99.90
9537;DHT22;4807;48.024;11.726;2022-12-16T04:44:35;0.10;99.90
9537;DHT22;4807;48.024;11.726;2022-12-16T04:48:03;0.10;99.90
9537;DHT22;4807;48.024;11.726;2022-12-16T04:51:29;0.10;99.90
9537;DHT22;4807;48.024;11.726;2022-12-16T04:54:54;0.10;99.90
9537;DHT22;4807;48.024;11.726;2022-12-16T04:58:20;0.10;99.90
9537;DHT22;4807;48.024;11.726;2022-12-16T05:01:46;0.10;99.90
9537;DHT22;4807;48.024;11.726;2022-12-16T05:05:13;0.00;99.90
9537;DHT22;4807;48.024;11.726;2022-12-16T05:08:39;-0.30;99.90
9537;DHT22;4807;48.024;11.726;2022-12-16T05:12:05;-0.40;99.90
9537;DHT22;4807;48.024;11.726;2022-12-16T05:15:30;-0.50;99.90
9537;DHT22;4807;48.024;11.726;2022-12-16T05:18:56;-0.60;99.90
9537;DHT22;4807;48.024;11.726;2022-12-16T05:22:20;-0.50;99.90
9537;DHT22;4807;48.024;11.726;2022-12-16T05:25:46;-0.50;99.90
9537;DHT22;4807;48.024;11.726;2022-12-16T05:29:11;-0.40;99.90
9537;DHT22;4807;48.024;11.726;2022-12-16T05:32:37;-0.40;99.90
9537;DHT22;4807;48.024;11.726;2022-12-16T05:36:04;-0.30;99.90
9537;DHT22;4807;48.024;11.726;2022-12-16T05:39:31;-0.30;99.90
9537;DHT22;4807;48.024;11.726;2022-12-16T05:42:57;-0.60;99.90
9537;DHT22;4807;48.024;11.726;2022-12-16T05:46:23;-0.70;99.90
9537;DHT22;4807;48.024;11.726;2022-12-16T05:49:49;-0.70;99.90
9537;DHT22;4807;48.024;11.726;2022-12-16T05:53:15;-0.70;99.90
9537;DHT22;4807;48.024;11.726;2022-12-16T05:56:42;-0.70;99.90
9537;DHT22;4807;48.024;11.726;2022-12-16T06:00:17;-0.70;99.90
9537;DHT22;4807;48.024;11.726;2022-12-16T06:03:43;-0.70;99.90
9537;DHT22;4807;48.024;11.726;2022-12-16T06:07:09;-0.80;99.90
9537;DHT22;4807;48.024;11.726;2022-12-16T06:10:35;-0.80;99.90
9537;DHT22;4807;48.024;11.726;2022-12-16T06:14:02;-0.70;99.90
9537;DHT22;4807;48.024;11.726;2022-12-16T06:17:28;-0.70;99.90
9537;DHT22;4807;48.024;11.726;2022-12-16T06:20:53;-0.80;99.90
9537;DHT22;4807;48.024;11.726;2022-12-16T06:24:19;-0.80;99.90
9537;DHT22;4807;48.024;11.726;2022-12-16T06:27:49;-0.70;99.90
9537;DHT22;4807;48.024;11.726;2022-12-16T06:31:16;-0.60;99.90
9537;DHT22;4807;48.024;11.726;2022-12-16T06:34:42;-0.70;99.90
9537;DHT22;4807;48.024;11.726;2022-12-16T06:38:08;-0.60;99.90
9537;DHT22;4807;48.024;11.726;2022-12-16T06:41:34;-0.60;99.90
9537;DHT22;4807;48.024;11.726;2022-12-16T06:45:00;-0.60;99.90
9537;DHT22;4807;48.024;11.726;2022-12-16T06:48:27;-0.60;99.90
9537;DHT22;4807;48.024;11.726;2022-12-16T06:51:49;-0.70;99.90
9537;DHT22;4807;48.024;11.726;2022-12-16T06:55:39;-0.70;99.90
9537;DHT22;4807;48.024;11.726;2022-12-16T06:59:05;-0.60;99.90
9537;DHT22;4807;48.024;11.726;2022-12-16T07:02:30;-0.60;99.90
9537;DHT22;4807;48.024;11.726;2022-12-16T07:05:58;-0.60;99.90
9537;DHT22;4807;48.024;11.726;2022-12-16T07:09:23;-0.70;99.90
9537;DHT22;4807;48.024;11.726;2022-12-16T07:12:49;-0.80;99.90
9537;DHT22;4807;48.024;11.726;2022-12-16T07:16:15;-0.80;99.90
9537;DHT22;4807;48.024;11.726;2022-12-16T07:19:41;-0.80;99.90
9537;DHT22;4807;48.024;11.726;2022-12-16T07:23:08;-0.80;99.90
9537;DHT22;4807;48.024;11.726;2022-12-16T07:26:34;-0.90;99.90
9537;DHT22;4807;48.024;11.726;2022-12-16T07:30:00;-0.90;99.90
9537;DHT22;4807;48.024;11.726;2022-12-16T07:33:25;-0.90;99.90
9537;DHT22;4807;48.024;11.726;2022-12-16T07:36:51;-0.80;99.90
9537;DHT22;4807;48.024;11.726;2022-12-16T07:40:18;-0.80;99.90
9537;DHT22;4807;48.024;11.726;2022-12-16T07:43:44;-0.70;99.90
9537;DHT22;4807;48.024;11.726;2022-12-16T07:47:10;-0.70;99.90
9537;DHT22;4807;48.024;11.726;2022-12-16T07:50:36;-0.70;99.90
9537;DHT22;4807;48.024;11.726;2022-12-16T07:54:02;-0.70;99.90
9537;DHT22;4807;48.024;11.726;2022-12-16T07:57:29;-0.70;99.90
9537;DHT22;4807;48.024;11.726;2022-12-16T08:00:55;-0.70;99.90
9537;DHT22;4807;48.024;11.726;2022-12-16T08:04:21;-0.70;99.90
9537;DHT22;4807;48.024;11.726;2022-12-16T08:07:47;-0.80;99.90
9537;DHT22;4807;48.024;11.726;2022-12-16T08:11:12;-0.80;99.90
9537;DHT22;4807;48.024;11.726;2022-12-16T08:14:40;-0.90;99.90
9537;DHT22;4807;48.024;11.726;2022-12-16T08:18:05;-2.00;99.90
9537;DHT22;4807;48.024;11.726;2022-12-16T08:21:31;-0.80;99.90
9537;DHT22;4807;48.024;11.726;2022-12-16T08:24:57;-0.70;99.90
9537;DHT22;4807;48.024;11.726;2022-12-16T08:28:37;-0.60;99.90
9537;DHT22;4807;48.024;11.726;2022-12-16T08:32:24;-0.60;99.90
9537;DHT22;4807;48.024;11.726;2022-12-16T08:35:50;-0.50;99.90
9537;DHT22;4807;48.024;11.726;2022-12-16T08:39:16;-0.70;99.90
9537;DHT22;4807;48.024;11.726;2022-12-16T08:42:42;-0.80;99.90
9537;DHT22;4807;48.024;11.726;2022-12-16T08:46:11;-0.90;99.90
9537;DHT22;4807;48.024;11.726;2022-12-16T08:49:38;-1.00;99.90
9537;DHT22;4807;48.024;11.726;2022-12-16T08:53:08;-1.00;99.90
9537;DHT22;4807;48.024;11.726;2022-12-16T08:56:33;-0.90;99.90
9537;DHT22;4807;48.024;11.726;2022-12-16T09:00:00;-0.80;99.90
9537;DHT22;4807;48.024;11.726;2022-12-16T09:03:26;-0.70;99.90
9537;DHT22;4807;48.024;11.726;2022-12-16T09:06:53;-0.60;99.90
9537;DHT22;4807;48.024;11.726;2022-12-16T09:10:30;-0.60;99.90
9537;DHT22;4807;48.024;11.726;2022-12-16T09:13:56;-0.60;99.90
9537;DHT22;4807;48.024;11.726;2022-12-16T09:17:22;-0.60;99.90
9537;DHT22;4807;48.024;11.726;2022-12-16T09:20:51;-0.60;99.90
9537;DHT22;4807;48.024;11.726;2022-12-16T09:24:19;-0.60;99.90
9537;DHT22;4807;48.024;11.726;2022-12-16T09:27:41;-0.50;99.90
9537;DHT22;4807;48.024;11.726;2022-12-16T09:31:07;-0.40;99.90
9537;DHT22;4807;48.024;11.726;2022-12-16T09:34:33;-0.30;99.90
9537;DHT22;4807;48.024;11.726;2022-12-16T09:37:55;-0.10;99.90
9537;DHT22;4807;48.024;11.726;2022-12-16T09:41:34;-0.20;99.90
9537;DHT22;4807;48.024;11.726;2022-12-16T09:45:12;-0.10;99.90
9537;DHT22;4807;48.024;11.726;2022-12-16T09:48:49;-0.10;99.90
9537;DHT22;4807;48.024;11.726;2022-12-16T09:52:20;-0.10;99.90
9537;DHT22;4807;48.024;11.726;2022-12-16T09:55:47;0.00;99.90
9537;DHT22;4807;48.024;11.726;2022-12-16T09:59:18;0.10;99.90
9537;DHT22;4807;48.024;11.726;2022-12-16T10:02:49;0.20;99.90
9537;DHT22;4807;48.024;11.726;2022-12-16T10:06:26;0.30;99.90
9537;DHT22;4807;48.024;11.726;2022-12-16T10:10:03;0.30;99.90
9537;DHT22;4807;48.024;11.726;2022-12-16T10:13:47;0.30;99.90
9537;DHT22;4807;48.024;11.726;2022-12-16T10:17:26;0.10;99.90
9537;DHT22;4807;48.024;11.726;2022-12-16T10:20:54;0.40;99.90
9537;DHT22;4807;48.024;11.726;2022-12-16T10:24:28;0.40;99.90
9537;DHT22;4807;48.024;11.726;2022-12-16T10:28:11;0.40;99.90
9537;DHT22;4807;48.024;11.726;2022-12-16T10:31:40;-0.10;99.90
9537;DHT22;4807;48.024;11.726;2022-12-16T10:35:18;-0.10;99.90
9537;DHT22;4807;48.024;11.726;2022-12-16T10:38:49;-0.10;99.90
9537;DHT22;4807;48.024;11.726;2022-12-16T10:42:20;-0.30;99.90
9537;DHT22;4807;48.024;11.726;2022-12-16T10:45:57;-0.50;99.90
9537;DHT22;4807;48.024;11.726;2022-12-16T10:49:24;-0.60;99.90
9537;DHT22;4807;48.024;11.726;2022-12-16T10:52:59;-0.70;99.90
9537;DHT22;4807;48.024;11.726;2022-12-16T10:56:42;-0.80;99.90
9537;DHT22;4807;48.024;11.726;2022-12-16T11:00:19;-0.70;99.90
9537;DHT22;4807;48.024;11.726;2022-12-16T11:07:53;-0.50;99.90
9537;DHT22;4807;48.024;11.726;2022-12-16T11:11:22;-0.70;99.90
9537;DHT22;4807;48.024;11.726;2022-12-16T11:14:51;-0.70;99.90
9537;DHT22;4807;48.024;11.726;2022-12-16T11:18:48;0.90;99.90
9537;DHT22;4807;48.024;11.726;2022-12-16T11:22:17;-0.90;99.90
9537;DHT22;4807;48.024;11.726;2022-12-16T11:25:44;-0.90;99.90
9537;DHT22;4807;48.024;11.726;2022-12-16T11:29:43;-0.90;99.90
9537;DHT22;4807;48.024;11.726;2022-12-16T11:33:57;-1.00;99.90
9537;DHT22;4807;48.024;11.726;2022-12-16T11:37:27;-1.10;99.90
9537;DHT22;4807;48.024;11.726;2022-12-16T11:40:57;-1.00;99.90
9537;DHT22;4807;48.024;11.726;2022-12-16T11:44:28;-0.80;99.90
9537;DHT22;4807;48.024;11.726;2022-12-16T11:48:01;-0.70;99.90
9537;DHT22;4807;48.024;11.726;2022-12-16T11:51:34;-0.70;99.90
9537;DHT22;4807;48.024;11.726;2022-12-16T11:55:23;-0.50;99.90
9537;DHT22;4807;48.024;11.726;2022-12-16T11:59:18;-0.30;99.90
9537;DHT22;4807;48.024;11.726;2022-12-16T12:02:59;-0.20;99.90
9537;DHT22;4807;48.024;11.726;2022-12-16T12:06:38;-0.10;99.90
9537;DHT22;4807;48.024;11.726;2022-12-16T12:10:48;0.10;99.90
9537;DHT22;4807;48.024;11.726;2022-12-16T12:14:32;0.20;99.90
9537;DHT22;4807;48.024;11.726;2022-12-16T12:18:14;0.30;99.90
9537;DHT22;4807;48.024;11.726;2022-12-16T12:21:52;0.10;99.90
9537;DHT22;4807;48.024;11.726;2022-12-16T12:25:33;0.00;99.90
9537;DHT22;4807;48.024;11.726;2022-12-16T12:29:10;-0.10;99.90
9537;DHT22;4807;48.024;11.726;2022-12-16T12:32:48;-0.20;99.90
9537;DHT22;4807;48.024;11.726;2022-12-16T12:36:28;-0.40;99.90
9537;DHT22;4807;48.024;11.726;2022-12-16T12:40:14;-0.60;99.90
9537;DHT22;4807;48.024;11.726;2022-12-16T12:43:56;-0.60;99.90
9537;DHT22;4807;48.024;11.726;2022-12-16T12:47:52;-0.60;99.90
9537;DHT22;4807;48.024;11.726;2022-12-16T12:51:27;-0.70;99.90
9537;DHT22;4807;48.024;11.726;2022-12-16T12:55:02;-0.70;99.90
9537;DHT22;4807;48.024;11.726;2022-12-16T12:58:36;-0.70;99.90
9537;DHT22;4807;48.024;11.726;2022-12-16T13:02:05;-0.60;99.90
9537;DHT22;4807;48.024;11.726;2022-12-16T13:05:37;-0.40;99.90
9537;DHT22;4807;48.024;11.726;2022-12-16T13:09:28;-0.30;99.90
9537;DHT22;4807;48.024;11.726;2022-12-16T13:13:21;-0.20;99.90
9537;DHT22;4807;48.024;11.726;2022-12-16T13:16:58;-0.10;99.90
9537;DHT22;4807;48.024;11.726;2022-12-16T13:20:36;-0.30;99.90
9537;DHT22;4807;48.024;11.726;2022-12-16T13:24:19;-0.30;99.90
9537;DHT22;4807;48.024;11.726;2022-12-16T13:27:59;-0.30;99.90
9537;DHT22;4807;48.024;11.726;2022-12-16T13:31:27;-0.30;99.90
9537;DHT22;4807;48.024;11.726;2022-12-16T13:34:58;-0.30;99.90
9537;DHT22;4807;48.024;11.726;2022-12-16T13:38:25;-0.50;99.90
9537;DHT22;4807;48.024;11.726;2022-12-16T13:41:59;-0.50;99.90
9537;DHT22;4807;48.024;11.726;2022-12-16T13:45:30;-0.50;99.90
9537;DHT22;4807;48.024;11.726;2022-12-16T13:49:37;-0.60;99.90
9537;DHT22;4807;48.024;11.726;2022-12-16T13:53:08;-0.60;99.90
9537;DHT22;4807;48.024;11.726;2022-12-16T13:56:44;-0.60;99.90
9537;DHT22;4807;48.024;11.726;2022-12-16T14:00:19;-0.60;99.90
9537;DHT22;4807;48.024;11.726;2022-12-16T14:03:50;-0.60;99.90
9537;DHT22;4807;48.024;11.726;2022-12-16T14:07:20;-0.50;99.90
9537;DHT22;4807;48.024;11.726;2022-12-16T14:10:55;-0.50;99.90
9537;DHT22;4807;48.024;11.726;2022-12-16T14:14:28;-0.50;99.90
9537;DHT22;4807;48.024;11.726;2022-12-16T14:18:05;-0.50;99.90
9537;DHT22;4807;48.024;11.726;2022-12-16T14:21:51;-0.60;99.90
9537;DHT22;4807;48.024;11.726;2022-12-16T14:25:24;-0.60;99.90
9537;DHT22;4807;48.024;11.726;2022-12-16T14:28:51;-0.60;99.90
9537;DHT22;4807;48.024;11.726;2022-12-16T14:32:20;-0.60;99.90
9537;DHT22;4807;48.024;11.726;2022-12-16T14:35:52;-0.70;99.90
9537;DHT22;4807;48.024;11.726;2022-12-16T14:39:21;-0.70;99.90
9537;DHT22;4807;48.024;11.726;2022-12-16T14:42:50;-0.70;99.90
9537;DHT22;4807;48.024;11.726;2022-12-16T14:46:27;-0.80;99.90
9537;DHT22;4807;48.024;11.726;2022-12-16T14:49:54;-0.90;99.90
9537;DHT22;4807;48.024;11.726;2022-12-16T14:53:23;-0.80;99.90
9537;DHT22;4807;48.024;11.726;2022-12-16T14:56:56;-0.90;99.90
9537;DHT22;4807;48.024;11.726;2022-12-16T15:00:22;-0.90;99.90
9537;DHT22;4807;48.024;11.726;2022-12-16T15:03:49;-1.00;99.90
9537;DHT22;4807;48.024;11.726;2022-12-16T15:07:15;-0.90;99.90
9537;DHT22;4807;48.024;11.726;2022-12-16T15:10:43;-1.00;99.90
9537;DHT22;4807;48.024;11.726;2022-12-16T15:14:12;-1.10;99.90
9537;DHT22;4807;48.024;11.726;2022-12-16T15:17:47;-1.10;99.90
9537;DHT22;4807;48.024;11.726;2022-12-16T15:21:15;-1.20;99.90
9537;DHT22;4807;48.024;11.726;2022-12-16T15:24:42;-1.30;99.90
9537;DHT22;4807;48.024;11.726;2022-12-16T15:28:24;-1.30;99.90
9537;DHT22;4807;48.024;11.726;2022-12-16T15:32:01;-1.40;99.90
9537;DHT22;4807;48.024;11.726;2022-12-16T15:35:29;-1.30;99.90
9537;DHT22;4807;48.024;11.726;2022-12-16T15:38:57;-1.40;99.90
9537;DHT22;4807;48.024;11.726;2022-12-16T15:42:25;-1.40;99.90
9537;DHT22;4807;48.024;11.726;2022-12-16T15:45:54;-1.30;99.90
9537;DHT22;4807;48.024;11.726;2022-12-16T15:49:26;-1.50;99.90
9537;DHT22;4807;48.024;11.726;2022-12-16T15:53:13;-1.50;99.90
9537;DHT22;4807;48.024;11.726;2022-12-16T15:56:43;-1.50;99.90
9537;DHT22;4807;48.024;11.726;2022-12-16T16:00:19;-1.50;99.90
9537;DHT22;4807;48.024;11.726;2022-12-16T16:03:50;-1.50;99.90
9537;DHT22;4807;48.024;11.726;2022-12-16T16:07:19;-1.50;99.90
9537;DHT22;4807;48.024;11.726;2022-12-16T16:10:47;-1.60;99.90
9537;DHT22;4807;48.024;11.726;2022-12-16T16:14:12;-1.40;99.90
9537;DHT22;4807;48.024;11.726;2022-12-16T16:17:38;-1.40;99.90
9537;DHT22;4807;48.024;11.726;2022-12-16T16:21:05;-1.50;99.90
9537;DHT22;4807;48.024;11.726;2022-12-16T16:24:31;-1.60;99.90
9537;DHT22;4807;48.024;11.726;2022-12-16T16:27:57;-1.60;99.90
9537;DHT22;4807;48.024;11.726;2022-12-16T16:31:23;-1.60;99.90
9537;DHT22;4807;48.024;11.726;2022-12-16T16:34:50;-1.60;99.90
9537;DHT22;4807;48.024;11.726;2022-12-16T16:38:17;-1.60;99.90
9537;DHT22;4807;48.024;11.726;2022-12-16T16:41:43;-0.40;99.90
9537;DHT22;4807;48.024;11.726;2022-12-16T16:45:09;-1.60;99.90
9537;DHT22;4807;48.024;11.726;2022-12-16T16:48:36;-1.60;99.90
9537;DHT22;4807;48.024;11.726;2022-12-16T16:52:02;-1.70;99.90
9537;DHT22;4807;48.024;11.726;2022-12-16T16:55:29;-1.80;99.90
9537;DHT22;4807;48.024;11.726;2022-12-16T17:02:45;-1.90;99.90
9537;DHT22;4807;48.024;11.726;2022-12-16T17:06:11;-1.90;99.90
9537;DHT22;4807;48.024;11.726;2022-12-16T17:09:37;-1.90;99.90
9537;DHT22;4807;48.024;11.726;2022-12-16T17:13:04;-1.90;99.90
9537;DHT22;4807;48.024;11.726;2022-12-16T17:16:31;-1.90;99.90
9537;DHT22;4807;48.024;11.726;2022-12-16T17:19:56;-1.80;99.90
9537;DHT22;4807;48.024;11.726;2022-12-16T17:23:22;-1.80;99.90
9537;DHT22;4807;48.024;11.726;2022-12-16T17:26:48;-1.90;99.90
9537;DHT22;4807;48.024;11.726;2022-12-16T17:30:30;-1.90;99.90
9537;DHT22;4807;48.024;11.726;2022-12-16T17:34:11;-1.80;99.90
9537;DHT22;4807;48.024;11.726;2022-12-16T17:37:37;-1.90;99.90
9537;DHT22;4807;48.024;11.726;2022-12-16T17:41:03;-1.90;99.90
9537;DHT22;4807;48.024;11.726;2022-12-16T17:44:29;-1.90;99.90
9537;DHT22;4807;48.024;11.726;2022-12-16T17:47:56;-1.80;99.90
9537;DHT22;4807;48.024;11.726;2022-12-16T17:51:23;-1.80;99.90
9537;DHT22;4807;48.024;11.726;2022-12-16T17:54:49;-1.80;99.90
9537;DHT22;4807;48.024;11.726;2022-12-16T17:58:15;-1.70;99.90
9537;DHT22;4807;48.024;11.726;2022-12-16T18:01:41;-1.80;99.90
9537;DHT22;4807;48.024;11.726;2022-12-16T18:05:09;-1.80;99.90
9537;DHT22;4807;48.024;11.726;2022-12-16T18:08:44;-1.70;99.90
9537;DHT22;4807;48.024;11.726;2022-12-16T18:12:10;-1.70;99.90
9537;DHT22;4807;48.024;11.726;2022-12-16T18:15:36;-1.80;99.90
9537;DHT22;4807;48.024;11.726;2022-12-16T18:19:02;-1.80;99.90
9537;DHT22;4807;48.024;11.726;2022-12-16T18:22:30;-1.80;99.90
9537;DHT22;4807;48.024;11.726;2022-12-16T18:25:59;-1.80;99.90
9537;DHT22;4807;48.024;11.726;2022-12-16T18:29:26;-1.80;99.90
9537;DHT22;4807;48.024;11.726;2022-12-16T18:32:52;-1.80;99.90
9537;DHT22;4807;48.024;11.726;2022-12-16T18:36:18;-1.80;99.90
9537;DHT22;4807;48.024;11.726;2022-12-16T18:39:46;-1.80;99.90
9537;DHT22;4807;48.024;11.726;2022-12-16T18:43:11;-1.80;99.90
9537;DHT22;4807;48.024;11.726;2022-12-16T18:46:38;-0.70;99.90
9537;DHT22;4807;48.024;11.726;2022-12-16T18:50:04;-1.80;99.90
9537;DHT22;4807;48.024;11.726;2022-12-16T18:53:36;-1.80;99.90
9537;DHT22;4807;48.024;11.726;2022-12-16T18:57:03;-1.80;99.90
9537;DHT22;4807;48.024;11.726;2022-12-16T19:00:29;-1.80;99.90
9537;DHT22;4807;48.024;11.726;2022-12-16T19:03:55;-1.80;99.90
9537;DHT22;4807;48.024;11.726;2022-12-16T19:07:23;-1.80;99.90
9537;DHT22;4807;48.024;11.726;2022-12-16T19:10:55;-1.80;99.90
9537;DHT22;4807;48.024;11.726;2022-12-16T19:14:19;-1.90;99.90
9537;DHT22;4807;48.024;11.726;2022-12-16T19:17:45;-1.90;99.90
9537;DHT22;4807;48.024;11.726;2022-12-16T19:21:11;-1.90;99.90
9537;DHT22;4807;48.024;11.726;2022-12-16T19:24:38;-1.80;99.90
9537;DHT22;4807;48.024;11.726;2022-12-16T19:28:03;-1.90;99.90
9537;DHT22;4807;48.024;11.726;2022-12-16T19:31:30;-2.00;99.90
9537;DHT22;4807;48.024;11.726;2022-12-16T19:34:57;-2.00;99.90
9537;DHT22;4807;48.024;11.726;2022-12-16T19:38:24;-2.00;99.90
9537;DHT22;4807;48.024;11.726;2022-12-16T19:41:50;-1.90;99.90
9537;DHT22;4807;48.024;11.726;2022-12-16T19:45:17;-1.90;99.90
9537;DHT22;4807;48.024;11.726;2022-12-16T19:48:45;-1.80;99.90
9537;DHT22;4807;48.024;11.726;2022-12-16T19:52:11;-1.90;99.90
9537;DHT22;4807;48.024;11.726;2022-12-16T19:55:36;-1.80;99.90
9537;DHT22;4807;48.024;11.726;2022-12-16T19:59:02;-1.90;99.90
9537;DHT22;4807;48.024;11.726;2022-12-16T20:02:28;-1.80;99.90
9537;DHT22;4807;48.024;11.726;2022-12-16T20:06:03;-1.90;99.90
9537;DHT22;4807;48.024;11.726;2022-12-16T20:09:32;-2.50;99.90
9537;DHT22;4807;48.024;11.726;2022-12-16T20:13:06;-1.80;99.90
9537;DHT22;4807;48.024;11.726;2022-12-16T20:16:36;-1.80;99.90
9537;DHT22;4807;48.024;11.726;2022-12-16T20:20:05;-1.70;99.90
9537;DHT22;4807;48.024;11.726;2022-12-16T20:23:33;-1.80;99.90
9537;DHT22;4807;48.024;11.726;2022-12-16T20:27:00;-1.90;99.90
9537;DHT22;4807;48.024;11.726;2022-12-16T20:30:26;-1.80;99.90
9537;DHT22;4807;48.024;11.726;2022-12-16T20:33:53;-1.80;99.90
9537;DHT22;4807;48.024;11.726;2022-12-16T20:37:18;-1.80;99.90
9537;DHT22;4807;48.024;11.726;2022-12-16T20:41:00;-1.80;99.90
9537;DHT22;4807;48.024;11.726;2022-12-16T20:44:27;-1.80;99.90
9537;DHT22;4807;48.024;11.726;2022-12-16T20:47:54;-1.80;99.90
9537;DHT22;4807;48.024;11.726;2022-12-16T20:51:20;-1.80;99.90
9537;DHT22;4807;48.024;11.726;2022-12-16T20:54:46;-1.80;99.90
9537;DHT22;4807;48.024;11.726;2022-12-16T20:58:17;-1.90;99.90
9537;DHT22;4807;48.024;11.726;2022-12-16T21:01:44;-2.00;99.90
9537;DHT22;4807;48.024;11.726;2022-12-16T21:05:30;-2.10;99.90
9537;DHT22;4807;48.024;11.726;2022-12-16T21:08:57;-2.00;99.90
9537;DHT22;4807;48.024;11.726;2022-12-16T21:12:24;-2.00;99.90
9537;DHT22;4807;48.024;11.726;2022-12-16T21:15:55;-2.00;99.90
9537;DHT22;4807;48.024;11.726;2022-12-16T21:19:21;-1.90;99.90
9537;DHT22;4807;48.024;11.726;2022-12-16T21:22:48;-1.90;99.90
9537;DHT22;4807;48.024;11.726;2022-12-16T21:26:21;-1.90;99.90
9537;DHT22;4807;48.024;11.726;2022-12-16T21:29:47;-1.90;99.90
9537;DHT22;4807;48.024;11.726;2022-12-16T21:33:18;-1.90;99.90
9537;DHT22;4807;48.024;11.726;2022-12-16T21:36:44;-2.00;99.90
9537;DHT22;4807;48.024;11.726;2022-12-16T21:40:10;-2.00;99.90
9537;DHT22;4807;48.024;11.726;2022-12-16T21:43:42;-1.90;99.90
9537;DHT22;4807;48.024;11.726;2022-12-16T21:47:08;-1.90;99.90
9537;DHT22;4807;48.024;11.726;2022-12-16T21:50:35;-1.90;99.90
9537;DHT22;4807;48.024;11.726;2022-12-16T21:54:02;-1.90;99.90
9537;DHT22;4807;48.024;11.726;2022-12-16T21:57:28;-1.90;99.90
9537;DHT22;4807;48.024;11.726;2022-12-16T22:00:56;-1.90;99.90
9537;DHT22;4807;48.024;11.726;2022-12-16T22:04:23;-2.00;99.90
9537;DHT22;4807;48.024;11.726;2022-12-16T22:07:51;-1.90;99.90
9537;DHT22;4807;48.024;11.726;2022-12-16T22:11:19;-1.90;99.90
9537;DHT22;4807;48.024;11.726;2022-12-16T22:14:45;-1.90;99.90
9537;DHT22;4807;48.024;11.726;2022-12-16T22:18:11;-1.90;99.90
9537;DHT22;4807;48.024;11.726;2022-12-16T22:21:37;-1.90;99.90
9537;DHT22;4807;48.024;11.726;2022-12-16T22:25:05;-1.90;99.90
9537;DHT22;4807;48.024;11.726;2022-12-16T22:28:32;-1.80;99.90